Portada
METAR-TAF:

METAR-TAF

Aeroports :

Kozhikode, Índia

latitud: 11-08-24N, longitud: 75-57-00E, altitud: 104 m

Observació

L'informe es va fer fa 33 minuts, a les 09:30 UTC
Vent 11 kt del Oest
Temperatura 34°C
Humitat 60%
Pressió 1007 hPa
Visibilitat: 6000 m
Escasses núvols a una alçada de 1500 ft

METAR: VOCL 250930Z 28011KT 6000 FEW015 34/25 Q1007 NOSIG

Hora: 15:33 (10:03 UTC)

Pronòstic

L'informe es va fer fa 2 hores i 3 minuts, a les 08:00 UTC
Pronòstic vàlid del 25 a les 09 UTC al 25 a les 18 UTC
Vent 10 kt del Nord-Oest
Visibilitat: 6000 m
Núvols disperses a una alçada de 1500 ft
Temporalment
l' 25 a les 10 UTC al 25 a les 14 UTC
Visibilitat: 3000 m
tempesta, pluja
Evolucionant progressivament
l' 25 a les 13 UTC al 25 a les 14 UTC
Vent 3 kt amb direcció variable
Visibilitat: 4000 m
Núvols disperses a una alçada de 1500 ft
calitja

TAF: VOCL 250800Z 2509/2518 32010KT 6000 SCT015 TEMPO 2510/2514 3000 TSRA BECMG 2513/2514 VRB03KT 4000 HZ SCT015

Observacions i pronòstics meteorològics de més de 4000 aeroports (METAR i TAF).

Les estacions disponibles són els punts grocs i vermells al mapa.

Posi el ratolí al punt desitjat per veure el nom de l'estació.

Feu clic per veure les observacions i els pronòstics meteorològics.

Per canviar el mapa: feu clic els botons verds amb una creu de color negre per apropar; al botó verd amb un guió per allunyar la imatge; o en les fletxes verdes per a mapes adjacents.


METAR-TAF: